TFFFTKPK

Guest
Details From TFFF - Martinique/Aime Cesaire Intl
To TKPK - St. Kitts/Bradshaw Intl
Flight Number -
Tags decoded
Created
Modified
Stats Distance 198 nm / 366 km
Max Altitude 0 ft / 0 m
Waypoints 3
Social Downloads 2
Likes 0
Share VATSIM

Download

Looking for another format? Having issues loading an existing format? Contact us
Advertisement - Login to hide

Notes

Requested: TFFF PPR TKPK

Route

TFFF PPR TKPK

ID Type Via Altitude Latitude Longitude Leg Dist Tot Dist Heading (true) Name
O TFFF APT - 0 ft / 0 m 14.59103˚ -61.00317˚ - 0 nm - Martinique/Aime Cesaire Intl
PPR VOR - 0 ft / 0 m 16.26528˚ -61.54000˚ 105 nm 105 nm 343° / 343° POINTE A PITRE VOR-DME
O TKPK APT - 0 ft / 0 m 17.31119˚ -62.71867˚ 92 nm 197 nm 313° / 313° St. Kitts/Bradshaw Intl

Altitude Profile

Advertisement - Login to hide

Weather


0- 5 10 15 20 25 30 35+ Temperature / ° C

Clouds and Precipitation
Forecast for 2018-05-25 00:00 UTC. Updated 4 hours ago

Ground ~20,000 ft ~40,000 ft Winds

TFFF

Details ICAO TFFF (FDF)
Name Martinique/Aime Cesaire Intl
Region France (Guadeloupe, Martinique, Saint Barthélemy, Saint Martin)
Timezone America/Martinique (UTC-4.0)
Stats Elevation 16 ft / 5 m (AMSL)
Location 14.591032° -61.003173°
Runways 1
Magnetic Variation 15.072° W

METAR

TFFF 250330Z AUTO 08007KT 9999 FEW031 BKN045 BKN052 25/22 Q1017 TEMPO 4000 SHRA SCT018TCU

Decode

TAF

TAF TFFF 242200Z 2500/2524 08008KT 9999 SCT025 SCT040 TEMPO 2500/2512 4000 SHRA SCT018TCU

Decode

Departure Runways

ID Width Length Bearing (true) Bearing (mag) Surface Threshold Offset Overrun Length
09 148 ft / 45 m 9,852 ft / 3,003 m 79.93° 95.00° Asphalt 0 ft / 0 m 0 ft / 0 m
27 148 ft / 45 m 9,852 ft / 3,003 m 259.94° 275.01° Asphalt 820 ft / 250 m 948 ft / 289 m

TKPK

Details ICAO TKPK (SKB)
Name St. Kitts/Bradshaw Intl
Region Saint Kitts and Nevis
Timezone America/St_Kitts (UTC-4.0)
Stats Elevation 170 ft / 52 m (AMSL)
Location 17.311194° -62.718666°
Runways 1
Magnetic Variation 14.463° W

METAR

Not found

TAF

TAF TKPK 242339Z 2500/2524 07011KT P6SM FEW020 FM250600 06009KT P6SM VCSH SCT018 FM251450 09015KT P6SM SCT022 AMD NOT SKED 2502/2511

Decode

Destination Runways

ID Width Length Bearing (true) Bearing (mag) Surface Threshold Offset Overrun Length
07 148 ft / 45 m 7,620 ft / 2,323 m 56.95° 71.41° Asphalt 200 ft / 61 m 0 ft / 0 m
25 148 ft / 45 m 7,620 ft / 2,323 m 236.95° 251.41° Asphalt 0 ft / 0 m 0 ft / 0 m

Popular Alternatives